Ambrose, North Dakota
Current Conditions -  °F | °C
As of 8:15 AM on Sunday 21 Dec 2014 (Local Time) from KD50 Reporting Station
Clear Clear  
Wind Chill:   Ceiling: Unl
Heat Index: 19°   Visibility: 10mi
Dew Point: 19°   Wind: 10mph
Humidity: 100%   Direction: 190°S
Pressure: 29.49"   Gusts: NA
Location:  48.95°N, 103.48°W
Report Text: KD50 211415Z AUTO 19009KT 10SM CLR M07/M07 A2949 RMK AO2
Loading
Personal Weather Stations






























Interactive Weather Map New forecast layout! Learn more

10-Day Weather Forecast

Advertisements
Track Severe Weather on mobile